New Century — V7GF8 — position and weather

sailwx.info

Track history (hours):
 
Tides and Currents Weather Stations Pressure Air Temp Water Temp Dewpoint Dewpoint Depression Visibility Wind Speed Wind Dir Waves Ship Positions

New Century

Last reported at 2017-Feb-24 07:18 UTC. Time now 2017-Mar-30 04:53 UTC.
Position N 01°54' E 102°23'.
Warning: this ship's position is 33 days out of date.

Length 228 m; draft 7.2 m.

Type: Tanker. MMSI: 538002085.

Date/timePositionNaut miles runAvg speedWind from/ knotsBaromVisibWave heightAir tempDewpointWater temp
2017-Feb-24 07:18N 01°54' E 102°23'1013.3
2017-Feb-24 06:33N 01°50' E 102°32'1413.5
2017-Feb-24 05:33N 01°44' E 102°45'5512.4
2017-Feb-24 01:07N 01°13' E 103°30'711.8
2017-Feb-24 00:34N 01°12' E 103°36'1010.4
2017-Feb-23 23:34N 01°10' E 103°47'1111.0
2017-Feb-23 22:34N 01°15' E 103°57'4 3.1
2017-Feb-23 21:19N 01°17' E 103°59'0 0.0
2017-Feb-23 20:31N 01°17' E 103°59'0 0.0
2017-Feb-23 19:31N 01°17' E 103°59'0 0.1
2017-Feb-23 18:13N 01°18' E 103°59'0 0.1
2017-Feb-23 17:31N 01°17' E 103°59'0 0.0
2017-Feb-23 16:31N 01°17' E 103°59'0 0.0
2017-Feb-23 15:31N 01°17' E 103°59'0 0.0
2017-Feb-23 14:28N 01°17' E 103°59'0 0.0
2017-Feb-23 13:28N 01°17' E 103°59'0 0.0
2017-Feb-23 12:25N 01°17' E 103°59'0 0.0
2017-Feb-23 11:33N 01°17' E 103°59'2 1.6
2017-Feb-23 10:33N 01°16' E 103°59'  
2017-Feb-18 14:33N 01°15' E 104°01'5 0.7
2017-Feb-18 08:19N 01°17' E 103°57'0 0.0
2017-Feb-18 07:31N 01°17' E 103°57'0 0.0
2017-Feb-18 06:31N 01°17' E 103°57'0 0.0
2017-Feb-18 05:25N 01°17' E 103°57'0 0.0
2017-Feb-18 04:25N 01°17' E 103°57'0 0.0
2017-Feb-18 03:31N 01°17' E 103°57'0 0.0
2017-Feb-18 02:22N 01°17' E 103°57'0 0.0
2017-Feb-18 01:31N 01°17' E 103°57'0 0.0
2017-Feb-18 00:30N 01°17' E 103°57'0 0.0
2017-Feb-17 23:30N 01°17' E 103°57'0 0.0
2017-Feb-17 22:30N 01°17' E 103°57'0 0.0
2017-Feb-17 21:33N 01°17' E 103°57'0 0.0
2017-Feb-17 20:33N 01°17' E 103°57'0 0.0
2017-Feb-17 17:22N 01°17' E 103°57'3 3.9
2017-Feb-17 16:33N 01°16' E 103°59'  
Track history (hours):
 
Tides and Currents Weather Stations Pressure Air Temp Water Temp Dewpoint Dewpoint Depression Visibility Wind Speed Wind Dir Waves Ship Positions

New Century

Last reported at 2017-Feb-24 07:18 UTC. Time now 2017-Mar-30 04:53 UTC.
Position N 01°54' E 102°23'.
Warning: this ship's position is 33 days out of date.

Length 228 m; draft 7.2 m.

Type: Tanker. MMSI: 538002085.

Date/timePositionNaut miles runAvg speedWind from/ knotsBaromVisibWave heightAir tempDewpointWater temp
2017-Feb-24 07:18N 01°54' E 102°23'1013.3
2017-Feb-24 06:33N 01°50' E 102°32'1413.5
2017-Feb-24 05:33N 01°44' E 102°45'5512.4
2017-Feb-24 01:07N 01°13' E 103°30'711.8
2017-Feb-24 00:34N 01°12' E 103°36'1010.4
2017-Feb-23 23:34N 01°10' E 103°47'1111.0
2017-Feb-23 22:34N 01°15' E 103°57'4 3.1
2017-Feb-23 21:19N 01°17' E 103°59'0 0.0
2017-Feb-23 20:31N 01°17' E 103°59'0 0.0
2017-Feb-23 19:31N 01°17' E 103°59'0 0.1
2017-Feb-23 18:13N 01°18' E 103°59'0 0.1
2017-Feb-23 17:31N 01°17' E 103°59'0 0.0
2017-Feb-23 16:31N 01°17' E 103°59'0 0.0
2017-Feb-23 15:31N 01°17' E 103°59'0 0.0
2017-Feb-23 14:28N 01°17' E 103°59'0 0.0
2017-Feb-23 13:28N 01°17' E 103°59'0 0.0
2017-Feb-23 12:25N 01°17' E 103°59'0 0.0
2017-Feb-23 11:33N 01°17' E 103°59'2 1.6
2017-Feb-23 10:33N 01°16' E 103°59'  
2017-Feb-18 14:33N 01°15' E 104°01'5 0.7
2017-Feb-18 08:19N 01°17' E 103°57'0 0.0
2017-Feb-18 07:31N 01°17' E 103°57'0 0.0
2017-Feb-18 06:31N 01°17' E 103°57'0 0.0
2017-Feb-18 05:25N 01°17' E 103°57'0 0.0
2017-Feb-18 04:25N 01°17' E 103°57'0 0.0
2017-Feb-18 03:31N 01°17' E 103°57'0 0.0
2017-Feb-18 02:22N 01°17' E 103°57'0 0.0
2017-Feb-18 01:31N 01°17' E 103°57'0 0.0
2017-Feb-18 00:30N 01°17' E 103°57'0 0.0
2017-Feb-17 23:30N 01°17' E 103°57'0 0.0
2017-Feb-17 22:30N 01°17' E 103°57'0 0.0
2017-Feb-17 21:33N 01°17' E 103°57'0 0.0
2017-Feb-17 20:33N 01°17' E 103°57'0 0.0
2017-Feb-17 17:22N 01°17' E 103°57'3 3.9
2017-Feb-17 16:33N 01°16' E 103°59'  

Dump ship's entire track history